Airfield :
LOGIN :

Register | Disclaimer

   EN    FR    IT 

 










Legend :    VFR   Marginal VFR   IFR   Intensive IFR   Very Intensive IFR
Visi :
Ceiling :
>= 8 km
>= 3000ft
5 to 8 km
1000 to 3000 ft
1500m to 5 km
500 to 1000 ft
800 to 1500m
200 to 500 ft
< 800m
< 200 ft
Symbols :   Thunderstorms  Fog  Heavy snow  Heavy precipitations  Wind > 20 kt
SIGMETs :     Misc.  Thunderstorms  Icing  Turbulence  Mountain Waves  Volcanic Ashes







- Airport Elevation : 65 ft
- IATA code : PIK
- Download approach charts


EGPK - Glasgow Prestwick

CURRENT METAR :
  • 210650Z 17005KT 9999 SCT022 01/00 Q1021

EXPIRED METARs :
  • 210620Z 17003KT 9999 SCT022 01/00 Q1022
  • 210550Z 13002KT 9999 SCT025 00/M01 Q1022
  • 210450Z 12005KT 9999 FEW030 M00/M01 Q1022

TAF TAF EGPK
Valid from the 21 at 06:00 until the 22 at 06:00 UTC


210453Z 2106/2206 VRB03KT 9999 SCT015
BECMG 2106/2109 18010KT
TEMPO 2112/2118 18018G30KT 7000 RA BKN008
BECMG 2118/2121 27012KT
TEMPO 2121/2206 7000 SHRA
No reported NOTAMs for that airfield.
1 SIGMET reported for the Scottish FIR (EGPX) :
 
Severe turbulence
EGPX SIGMET 01 VALID 210630/211030 EGRR
EGPX SCOTTISH FIR SEV TURB FCST NW OF LINE N6100 W00754 - N5723 W01000 SFC/FL060 MOV SE 15KT NC=



MET'MAP, your aeronautical weather chart ! - Copyright ORBIFLY December 2007 - Disclaimer

ORBIFLY MET'MAP TEAM :

Programming & Development : Alexandra Zaïnal
Concept & Development : Baudouin d'Aumeries
Co-Development & Prog : Marc-Olivier Méhu
Technical & hardware support : Manuel Goepfert

Contact : metmap@orbifly.com




SOURCES & CREDITS :

   NOAA